Roswell, NM (88201)

8:08 AM MST on January 24, 2017 (GMT -0700)
ME5063 | | Change Station
Active Advisory: Wind Advisory

Elev 4024 ft 33.82 °N, 104.59 °W | Updated 2 minutes ago

Clear
Clear
47.0 °F
Feels Like 43 °F
N
9.0
Wind Variable Wind from WNW
Gusts 13.0 mph

Today
High -- | Low -- °F
--% Chance of Precip.
Yesterday
High -- | Low -- °F
Precip. -- in
Pressure 29.60 in
Visibility 10.0 miles
Clouds Clear
Windchill 43 °F
Dew Point 27 °F
Humidity 46%
Rainfall 0.00 in
Snow Depth Not available.
6:58 AM 5:21 PM
Waning Crescent, 11% visible
METAR KROW 241451Z 28011KT 10SM CLR 10/00 A2969 RMK AO2 SLP024 T01000000 53025
Pressure 29.60 in
Visibility 10.0 miles
Clouds Clear
Windchill 43 °F
Dew Point 27 °F
Humidity 46%
Rainfall 0.00 in
Snow Depth Not available.
6:58 AM 5:21 PM
Waning Crescent, 11% visible
METAR KROW 241451Z 28011KT 10SM CLR 10/00 A2969 RMK AO2 SLP024 T01000000 53025

Get Your Daily Forecast Email!

Thanks for signing up!

Be on the lookout for a verification email in your inbox.

You'll start receiving the daily forecast at 8 AM.

×

10-Day Weather Forecast

Almanac

Astronomy

Jan. 24, 2017 Rise Set
Actual Time
Civil Twilight
Nautical Twilight
Astronomical Twilight
Moon
Length of Visible Light
Length of Day
Tomorrow will be .
, % of the Moon is Illuminated

Today's Extremes

State Highs State Lows

Community

WunderPhotos

Upload Photos

1,962,540 photos uploaded!

WunderBlog® & News

Nearby

Air Quality

  Air Quality AQ Index Pollutant
Not available.

Snow Depth

Station Depth Elevation

Earthquake Activity

City Distance Mag. Time & Date
Minimum magnitude displayed is 2.5.

Coastal Water Temperatures

Place Temperature

Stations

Nearby Weather Stations

Station Location Temp. Windchill Dew Point Humidity Wind Precip. Elev Updated Type
                   

Watches & Warnings

Wind Advisory
Issued: 3:35 AM MST Jan. 24, 2017 – National Weather Service

... Wind Advisory remains in effect from 8 am this morning to 7 PM
MST this evening...

* location... Quay... De Baca... Curry and Roosevelt counties
including the Chaves County plains.

* Winds... west 30 to 35 mph with gusts up to 55 mph.

* Timing... winds will increase quickly this morning and continue
through this afternoon... then winds will drop below advisory
level this evening.

* Visibility... locally reduced by patches of blowing dust.

* Local impacts... strong cross winds are expected on north to
south oriented roadways. Difficult driving conditions are
expected for high profile vehicles.

Precautionary/preparedness actions...

Motorists should exercise caution while travelling. Sudden gusts
of wind may cause you to lose control of your vehicle. Extra
attention should be given to cross winds.